createdAt,value
2019-04-03T00:01:05.708Z,7.70
2019-04-03T00:03:32.590Z,7.70
2019-04-03T00:06:00.287Z,7.70
2019-04-03T00:08:26.667Z,7.60
2019-04-03T00:10:53.110Z,7.60
2019-04-03T00:13:19.559Z,7.60
2019-04-03T00:15:45.991Z,7.60
2019-04-03T00:18:12.410Z,7.40
2019-04-03T00:20:38.839Z,7.40
2019-04-03T00:23:05.360Z,7.40
2019-04-03T00:25:31.797Z,7.30
2019-04-03T00:27:58.231Z,7.30
2019-04-03T00:30:24.742Z,7.30
2019-04-03T00:32:53.173Z,7.30
2019-04-03T00:35:19.277Z,7.30
2019-04-03T00:37:45.677Z,7.30
2019-04-03T00:40:12.305Z,7.30
2019-04-03T00:42:38.715Z,7.30
2019-04-03T00:45:06.715Z,7.30
2019-04-03T00:47:33.146Z,7.20
2019-04-03T00:49:59.599Z,7.20
2019-04-03T00:52:27.520Z,7.20
2019-04-03T00:54:54.797Z,7.20
2019-04-03T00:57:22.391Z,7.10
2019-04-03T00:59:48.801Z,7.00
2019-04-03T01:02:16.510Z,7.00
2019-04-03T01:04:43.228Z,7.10
2019-04-03T01:07:09.676Z,7.10
2019-04-03T01:09:36.114Z,7.10
2019-04-03T01:12:03.657Z,7.10
2019-04-03T01:14:31.620Z,7.10
2019-04-03T01:16:58.470Z,7.10
2019-04-03T01:19:24.874Z,7.00
2019-04-03T01:21:51.266Z,7.00
2019-04-03T01:24:17.680Z,7.10
2019-04-03T01:26:44.078Z,7.00
2019-04-03T01:29:10.649Z,6.90
2019-04-03T01:31:38.650Z,6.80
2019-04-03T01:34:05.052Z,6.90
2019-04-03T01:36:31.474Z,6.90
2019-04-03T01:38:57.844Z,7.00
2019-04-03T01:41:24.202Z,6.80
2019-04-03T01:43:53.151Z,6.90
2019-04-03T01:46:18.789Z,7.00
2019-04-03T01:48:45.230Z,6.90
2019-04-03T01:51:11.768Z,6.90
2019-04-03T01:53:38.288Z,6.80
2019-04-03T01:56:05.284Z,6.80
2019-04-03T01:58:31.737Z,6.70
2019-04-03T02:00:58.197Z,6.70
2019-04-03T02:03:24.624Z,6.70
2019-04-03T02:05:51.089Z,6.60
2019-04-03T02:08:17.528Z,6.70
2019-04-03T02:10:43.963Z,6.70
2019-04-03T02:13:10.459Z,6.70
2019-04-03T02:15:36.798Z,6.60
2019-04-03T02:18:04.194Z,6.60
2019-04-03T02:20:30.754Z,6.60
2019-04-03T02:22:59.301Z,6.60
2019-04-03T02:25:25.562Z,6.60
2019-04-03T02:27:51.966Z,6.60
2019-04-03T02:30:18.561Z,6.60
2019-04-03T02:32:44.925Z,6.50
2019-04-03T02:35:11.500Z,6.40
2019-04-03T02:37:37.849Z,6.30
2019-04-03T02:40:05.464Z,6.30
2019-04-03T02:42:31.914Z,6.30
2019-04-03T02:44:58.323Z,6.30
2019-04-03T02:47:25.203Z,6.30
2019-04-03T02:49:51.558Z,6.30
2019-04-03T02:52:18.020Z,6.20
2019-04-03T02:54:45.605Z,6.30
2019-04-03T02:57:11.964Z,6.30
2019-04-03T02:59:38.377Z,6.20
2019-04-03T03:02:04.917Z,6.20
2019-04-03T03:04:32.277Z,6.10
2019-04-03T03:07:03.334Z,6.10
2019-04-03T03:09:29.791Z,6.10
2019-04-03T03:11:57.729Z,6.10
2019-04-03T03:14:24.308Z,6.10
2019-04-03T03:16:51.190Z,6.10
2019-04-03T03:19:17.868Z,6.00
2019-04-03T03:21:45.462Z,6.00
2019-04-03T03:24:12.279Z,6.00
2019-04-03T03:26:39.366Z,6.00
2019-04-03T03:29:16.147Z,6.00
2019-04-03T03:32:02.548Z,5.90
2019-04-03T03:34:05.302Z,5.90
2019-04-03T03:36:32.718Z,6.00
2019-04-03T03:38:59.642Z,5.90
2019-04-03T03:41:26.774Z,5.90
2019-04-03T03:43:54.329Z,5.90
2019-04-03T03:46:21.422Z,5.90
2019-04-03T03:48:48.196Z,5.90
2019-04-03T03:51:14.906Z,5.90
2019-04-03T03:53:44.559Z,5.80
2019-04-03T03:56:10.601Z,5.90
2019-04-03T03:58:37.283Z,5.80
2019-04-03T04:01:03.719Z,5.70
2019-04-03T04:03:30.743Z,5.60
2019-04-03T04:05:57.145Z,5.70
2019-04-03T04:08:23.526Z,5.70
2019-04-03T04:10:50.631Z,5.70
2019-04-03T04:13:17.004Z,5.70
2019-04-03T04:15:44.909Z,5.70
2019-04-03T04:18:14.203Z,5.70
2019-04-03T04:20:40.152Z,5.60
2019-04-03T04:23:06.535Z,5.60
2019-04-03T04:25:33.255Z,5.50
2019-04-03T04:27:59.616Z,5.50
2019-04-03T04:30:26.025Z,5.60
2019-04-03T04:32:52.446Z,5.60
2019-04-03T04:35:20.639Z,5.50
2019-04-03T04:37:47.059Z,5.50
2019-04-03T04:40:13.686Z,5.40
2019-04-03T04:42:40.130Z,5.40
2019-04-03T04:45:06.533Z,5.40
2019-04-03T04:47:32.928Z,5.40
2019-04-03T04:49:59.336Z,5.50
2019-04-03T04:52:27.490Z,5.50
2019-04-03T04:54:53.990Z,5.60
2019-04-03T04:57:20.407Z,5.60
2019-04-03T04:59:46.854Z,5.70
2019-04-03T05:02:13.278Z,5.70
2019-04-03T05:04:39.693Z,5.70
2019-04-03T05:07:06.175Z,5.70
2019-04-03T05:09:34.614Z,5.70
2019-04-03T05:12:00.878Z,5.80
2019-04-03T05:14:28.608Z,5.90
2019-04-03T05:16:55.824Z,6.00
2019-04-03T05:19:22.870Z,6.10
2019-04-03T05:21:50.682Z,6.20
2019-04-03T05:24:17.633Z,6.30
2019-04-03T05:26:43.995Z,6.40
2019-04-03T05:29:10.733Z,6.50
2019-04-03T05:31:39.024Z,6.50
2019-04-03T05:34:05.630Z,6.60
2019-04-03T05:36:32.062Z,6.60
2019-04-03T05:38:58.490Z,6.70
2019-04-03T05:41:27.450Z,6.70
2019-04-03T05:43:53.200Z,6.80
2019-04-03T05:46:19.950Z,6.80
2019-04-03T05:48:48.019Z,6.90
2019-04-03T05:51:14.727Z,7.10
2019-04-03T05:53:41.217Z,7.10
2019-04-03T05:56:07.649Z,7.30
2019-04-03T05:58:34.210Z,7.50
2019-04-03T06:01:05.383Z,7.70
2019-04-03T06:03:40.485Z,8.00
2019-04-03T06:05:58.026Z,8.20
2019-04-03T06:08:24.832Z,8.50
2019-04-03T06:10:51.269Z,8.80
2019-04-03T06:13:17.755Z,9.20
2019-04-03T06:15:44.213Z,9.70
2019-04-03T06:18:10.662Z,9.80
2019-04-03T06:20:37.018Z,10.00
2019-04-03T06:23:03.406Z,10.50
2019-04-03T06:25:30.744Z,10.70
2019-04-03T06:27:59.049Z,11.10
2019-04-03T06:30:25.899Z,11.80
2019-04-03T06:32:55.076Z,11.70
2019-04-03T06:35:21.856Z,12.00
2019-04-03T06:37:48.252Z,12.10
2019-04-03T06:40:14.849Z,12.10
2019-04-03T06:42:44.097Z,12.40
2019-04-03T06:45:10.309Z,12.60
2019-04-03T06:47:36.861Z,13.10
2019-04-03T06:50:06.678Z,13.40
2019-04-03T06:52:33.195Z,14.00
2019-04-03T06:54:59.598Z,14.10
2019-04-03T06:57:26.009Z,14.10
2019-04-03T06:59:52.440Z,13.90
2019-04-03T07:02:18.935Z,14.10
2019-04-03T07:04:45.473Z,14.40
2019-04-03T07:07:11.804Z,14.20
2019-04-03T07:09:38.287Z,14.30
2019-04-03T07:12:04.661Z,13.90
2019-04-03T07:14:31.105Z,13.90
2019-04-03T07:17:00.205Z,13.90
2019-04-03T07:19:25.742Z,14.60
2019-04-03T07:21:53.024Z,14.30
2019-04-03T07:24:20.418Z,14.80
2019-04-03T07:26:47.201Z,15.10
2019-04-03T07:29:15.799Z,15.40
2019-04-03T07:31:41.865Z,15.10
2019-04-03T07:34:08.328Z,14.90
2019-04-03T07:36:34.772Z,15.30
2019-04-03T07:39:01.212Z,15.40
2019-04-03T07:41:29.568Z,15.80
2019-04-03T07:43:58.117Z,15.50
2019-04-03T07:46:24.215Z,16.00
2019-04-03T07:48:50.643Z,16.10
2019-04-03T07:51:17.133Z,16.10
2019-04-03T07:53:43.518Z,16.50
2019-04-03T07:56:09.896Z,16.50
2019-04-03T07:58:36.384Z,17.20
2019-04-03T08:01:03.118Z,17.10
2019-04-03T08:03:29.601Z,17.00
2019-04-03T08:05:56.798Z,17.00
2019-04-03T08:08:23.490Z,17.60
2019-04-03T08:10:49.888Z,17.20
2019-04-03T08:13:16.353Z,17.30
2019-04-03T08:15:44.509Z,17.50
2019-04-03T08:18:11.252Z,17.60
2019-04-03T08:20:37.690Z,17.40
2019-04-03T08:23:06.179Z,17.70
2019-04-03T08:25:33.490Z,17.50
2019-04-03T08:27:59.931Z,18.00
2019-04-03T08:30:26.492Z,17.90
2019-04-03T08:32:52.880Z,17.90
2019-04-03T08:35:23.082Z,17.90
2019-04-03T08:37:47.604Z,17.80
2019-04-03T08:40:14.123Z,18.20
2019-04-03T08:42:40.668Z,18.60
2019-04-03T08:45:09.352Z,18.40
2019-04-03T08:47:37.639Z,18.40
2019-04-03T08:50:07.561Z,19.00
2019-04-03T08:52:36.281Z,18.70
2019-04-03T08:55:04.086Z,18.60
2019-04-03T08:57:30.565Z,18.80
2019-04-03T08:59:59.606Z,19.10
2019-04-03T09:02:25.258Z,19.40
2019-04-03T09:04:51.817Z,19.20
2019-04-03T09:07:18.278Z,19.00
2019-04-03T09:09:44.679Z,18.80
2019-04-03T09:12:12.012Z,19.10
2019-04-03T09:14:38.574Z,19.60
2019-04-03T09:17:05.275Z,19.70
2019-04-03T09:19:31.850Z,19.60
2019-04-03T09:21:58.682Z,19.80
2019-04-03T09:24:25.361Z,19.80
2019-04-03T09:26:51.970Z,19.50
2019-04-03T09:29:18.782Z,19.70
2019-04-03T09:31:45.665Z,19.90
2019-04-03T09:34:12.165Z,20.40
2019-04-03T09:36:39.671Z,19.60
2019-04-03T09:39:09.552Z,19.30
2019-04-03T09:41:37.542Z,18.70
2019-04-03T09:44:04.157Z,19.10
2019-04-03T09:46:31.569Z,19.50
2019-04-03T09:48:58.389Z,19.70
2019-04-03T09:51:24.798Z,19.50
2019-04-03T09:53:51.399Z,19.60
2019-04-03T09:56:17.839Z,19.90
2019-04-03T09:58:45.364Z,20.10
2019-04-03T10:01:15.633Z,20.50
2019-04-03T10:03:40.382Z,20.70
2019-04-03T10:06:06.938Z,20.60
2019-04-03T10:08:33.352Z,21.00
2019-04-03T10:10:59.810Z,20.50
2019-04-03T10:13:27.157Z,20.80
2019-04-03T10:15:53.765Z,20.70
2019-04-03T10:18:21.970Z,20.80
2019-04-03T10:20:49.518Z,20.70
2019-04-03T10:23:16.325Z,20.80
2019-04-03T10:25:42.754Z,21.00
2019-04-03T10:28:09.321Z,21.20
2019-04-03T10:30:36.247Z,21.50
2019-04-03T10:33:02.603Z,22.00
2019-04-03T10:35:29.035Z,22.30
2019-04-03T10:37:55.453Z,22.00
2019-04-03T10:40:24.127Z,21.30
2019-04-03T10:42:50.522Z,21.90
2019-04-03T10:45:18.252Z,21.80
2019-04-03T10:47:44.908Z,21.60
2019-04-03T10:50:11.683Z,22.20
2019-04-03T10:52:38.249Z,21.30
2019-04-03T10:55:05.837Z,20.90
2019-04-03T10:57:34.749Z,21.40
2019-04-03T11:00:04.547Z,21.80
2019-04-03T11:02:31.139Z,22.00
2019-04-03T11:05:00.077Z,22.20
2019-04-03T11:07:25.837Z,22.10
2019-04-03T11:09:52.288Z,22.80
2019-04-03T11:12:19.040Z,22.60
2019-04-03T11:14:45.515Z,21.90
2019-04-03T11:17:12.048Z,22.40
2019-04-03T11:19:38.746Z,22.60
2019-04-03T11:22:05.237Z,22.50
2019-04-03T11:24:31.770Z,22.50
2019-04-03T11:26:58.285Z,22.10
2019-04-03T11:29:24.986Z,21.80
2019-04-03T11:31:51.505Z,21.60
2019-04-03T11:34:18.538Z,22.00
2019-04-03T11:36:45.327Z,22.10
2019-04-03T11:39:15.185Z,22.20
2019-04-03T11:41:40.290Z,22.60
2019-04-03T11:44:08.254Z,22.80
2019-04-03T11:46:35.445Z,22.80
2019-04-03T11:49:02.313Z,22.70
2019-04-03T11:51:29.552Z,23.20
2019-04-03T11:53:56.708Z,23.00
2019-04-03T11:56:23.118Z,23.20
2019-04-03T11:58:49.963Z,22.80
2019-04-03T12:01:18.601Z,23.00
2019-04-03T12:03:45.256Z,22.60
2019-04-03T12:06:11.729Z,22.40
2019-04-03T12:08:38.221Z,22.90
2019-04-03T12:11:06.112Z,22.90
2019-04-03T12:13:32.903Z,22.90
2019-04-03T12:15:59.470Z,23.20
2019-04-03T12:18:26.237Z,23.30
2019-04-03T12:20:53.494Z,23.70
2019-04-03T12:23:20.273Z,24.10
2019-04-03T12:25:46.902Z,24.20
2019-04-03T12:28:13.493Z,24.30
2019-04-03T12:30:40.341Z,24.40
2019-04-03T12:33:06.823Z,24.40
2019-04-03T12:35:33.216Z,24.30
2019-04-03T12:37:59.665Z,24.10
2019-04-03T12:40:26.126Z,23.50
2019-04-03T12:42:52.555Z,22.90
2019-04-03T12:45:19.416Z,22.70
2019-04-03T12:47:46.023Z,22.60
2019-04-03T12:50:13.968Z,22.80
2019-04-03T12:52:43.385Z,23.00
2019-04-03T12:55:09.731Z,23.00
2019-04-03T12:57:38.893Z,23.10
2019-04-03T13:00:10.583Z,22.00
2019-04-03T13:02:37.974Z,21.70
2019-04-03T13:05:07.750Z,21.90
2019-04-03T13:07:35.956Z,22.30
2019-04-03T13:10:08.017Z,22.30
2019-04-03T13:12:34.994Z,22.00
2019-04-03T13:15:04.301Z,21.90
2019-04-03T13:17:30.157Z,22.10
2019-04-03T13:19:59.315Z,22.10
2019-04-03T13:22:24.870Z,22.20
2019-04-03T13:24:51.638Z,22.50
2019-04-03T13:27:18.121Z,21.70
2019-04-03T13:29:44.811Z,21.60
2019-04-03T13:32:11.302Z,21.90
2019-04-03T13:34:37.796Z,21.60
2019-04-03T13:37:04.256Z,21.70
2019-04-03T13:39:33.109Z,21.90
2019-04-03T13:41:59.355Z,21.50
2019-04-03T13:44:26.898Z,21.70
2019-04-03T13:46:54.239Z,21.70
2019-04-03T13:49:20.693Z,21.70
2019-04-03T13:51:47.487Z,21.60
2019-04-03T13:54:14.105Z,22.00
2019-04-03T13:56:43.139Z,21.90
2019-04-03T13:59:08.870Z,21.10
2019-04-03T14:01:35.193Z,21.10
2019-04-03T14:04:01.666Z,20.70
2019-04-03T14:06:28.058Z,20.70
2019-04-03T14:08:54.467Z,20.50
2019-04-03T14:11:21.243Z,20.50
2019-04-03T14:13:47.638Z,20.70
2019-04-03T14:16:21.525Z,20.50
2019-04-03T14:18:42.360Z,20.20
2019-04-03T14:21:08.893Z,20.50
2019-04-03T14:23:35.984Z,20.30
2019-04-03T14:26:07.072Z,20.10
2019-04-03T14:28:33.371Z,19.90
2019-04-03T14:30:59.648Z,19.60
2019-04-03T14:33:27.175Z,19.20
2019-04-03T14:35:54.981Z,18.70
2019-04-03T14:38:21.659Z,18.70
2019-04-03T14:40:48.481Z,18.70
2019-04-03T14:43:15.460Z,18.60
2019-04-03T14:45:44.468Z,18.40
2019-04-03T14:48:10.130Z,18.40
2019-04-03T14:50:37.726Z,18.00
2019-04-03T14:53:05.252Z,17.70
2019-04-03T14:55:31.981Z,17.40
2019-04-03T14:57:59.766Z,17.40
2019-04-03T15:00:30.632Z,17.50
2019-04-03T15:02:56.194Z,17.50
2019-04-03T15:05:23.011Z,17.30
2019-04-03T15:07:50.723Z,17.20
2019-04-03T15:10:17.936Z,17.20
2019-04-03T15:12:44.539Z,17.10
2019-04-03T15:15:11.594Z,17.00
2019-04-03T15:17:38.728Z,17.00
2019-04-03T15:20:07.114Z,17.00
2019-04-03T15:22:33.765Z,17.00
2019-04-03T15:25:00.477Z,17.10
2019-04-03T15:27:28.610Z,17.00
2019-04-03T15:29:55.695Z,17.00
2019-04-03T15:32:22.257Z,17.00
2019-04-03T15:34:50.616Z,16.90
2019-04-03T15:37:18.588Z,16.80
2019-04-03T15:39:48.135Z,16.70
2019-04-03T15:42:13.731Z,16.70
2019-04-03T15:44:40.251Z,16.70
2019-04-03T15:47:09.264Z,16.60
2019-04-03T15:49:35.577Z,16.60
2019-04-03T15:52:02.091Z,16.60
2019-04-03T15:54:31.482Z,16.60
2019-04-03T15:56:57.178Z,16.30
2019-04-03T15:59:24.091Z,16.10
2019-04-03T16:01:50.673Z,16.10
2019-04-03T16:04:17.236Z,16.00
2019-04-03T16:06:43.880Z,15.90
2019-04-03T16:09:10.551Z,15.90
2019-04-03T16:11:37.102Z,15.80
2019-04-03T16:14:03.747Z,15.70
2019-04-03T16:16:30.431Z,15.60
2019-04-03T16:18:57.270Z,15.60
2019-04-03T16:21:24.426Z,15.60
2019-04-03T16:23:51.505Z,15.40
2019-04-03T16:26:18.240Z,15.30
2019-04-03T16:28:45.200Z,15.20
2019-04-03T16:31:11.659Z,15.20
2019-04-03T16:33:38.090Z,15.10
2019-04-03T16:36:04.499Z,15.10
2019-04-03T16:38:31.347Z,15.00
2019-04-03T16:40:58.092Z,15.00
2019-04-03T16:43:24.985Z,14.90
2019-04-03T16:45:51.647Z,14.80
2019-04-03T16:48:18.904Z,14.70
2019-04-03T16:50:46.447Z,14.70
2019-04-03T16:53:12.909Z,14.50
2019-04-03T16:55:39.307Z,14.50
2019-04-03T16:58:05.720Z,14.50
2019-04-03T17:00:32.527Z,14.50
2019-04-03T17:02:59.072Z,14.50
2019-04-03T17:05:25.587Z,14.50
2019-04-03T17:07:54.359Z,14.50
2019-04-03T17:10:20.268Z,14.40
2019-04-03T17:12:49.548Z,14.30
2019-04-03T17:15:15.561Z,14.20
2019-04-03T17:17:43.127Z,14.10
2019-04-03T17:20:10.651Z,14.10
2019-04-03T17:22:40.941Z,14.10
2019-04-03T17:25:07.924Z,14.00
2019-04-03T17:27:36.048Z,14.00
2019-04-03T17:30:07.202Z,13.90
2019-04-03T17:32:34.131Z,13.80
2019-04-03T17:35:00.566Z,13.80
2019-04-03T17:37:29.690Z,13.80
2019-04-03T17:39:55.302Z,13.60
2019-04-03T17:42:21.765Z,13.60
2019-04-03T17:44:48.127Z,13.60
2019-04-03T17:47:14.563Z,13.60
2019-04-03T17:49:40.919Z,13.60
2019-04-03T17:52:07.307Z,13.50
2019-04-03T17:54:33.709Z,13.50
2019-04-03T17:57:00.109Z,13.40
2019-04-03T17:59:26.558Z,13.40
2019-04-03T18:01:53.043Z,13.40
2019-04-03T18:04:20.241Z,13.40
2019-04-03T18:06:47.184Z,13.30
2019-04-03T18:09:13.681Z,13.20
2019-04-03T18:11:42.653Z,13.30
2019-04-03T18:14:08.296Z,13.20
2019-04-03T18:16:34.792Z,13.20
2019-04-03T18:19:04.512Z,13.20
2019-04-03T18:21:29.447Z,13.10
2019-04-03T18:23:56.038Z,13.00
2019-04-03T18:26:22.484Z,13.00
2019-04-03T18:28:48.886Z,12.90
2019-04-03T18:31:15.299Z,12.90
2019-04-03T18:33:41.710Z,12.90
2019-04-03T18:36:08.189Z,12.90
2019-04-03T18:38:34.612Z,12.80
2019-04-03T18:41:03.899Z,12.80
2019-04-03T18:43:29.301Z,12.80
2019-04-03T18:45:56.437Z,12.80
2019-04-03T18:48:23.875Z,12.80
2019-04-03T18:50:50.270Z,12.80
2019-04-03T18:53:16.779Z,12.80
2019-04-03T18:55:45.353Z,12.80
2019-04-03T18:58:11.591Z,12.70
2019-04-03T19:00:38.002Z,12.70
2019-04-03T19:03:05.966Z,12.70
2019-04-03T19:05:32.691Z,12.80
2019-04-03T19:07:59.168Z,12.80
2019-04-03T19:10:25.742Z,12.80
2019-04-03T19:12:52.163Z,12.80
2019-04-03T19:15:19.188Z,12.80
2019-04-03T19:17:45.788Z,12.80
2019-04-03T19:20:12.279Z,12.80
2019-04-03T19:22:39.786Z,12.80
2019-04-03T19:25:06.850Z,12.80
2019-04-03T19:27:33.492Z,12.80
2019-04-03T19:30:00.060Z,12.70
2019-04-03T19:32:26.647Z,12.80
2019-04-03T19:34:53.227Z,12.70
2019-04-03T19:37:19.810Z,12.70
2019-04-03T19:39:46.193Z,12.70
2019-04-03T19:42:13.968Z,12.60
2019-04-03T19:44:41.716Z,12.60
2019-04-03T19:47:08.366Z,12.60
2019-04-03T19:49:34.967Z,12.50
2019-04-03T19:52:01.409Z,12.30
2019-04-03T19:54:29.063Z,12.30
2019-04-03T19:56:56.425Z,12.30
2019-04-03T19:59:23.447Z,12.20
2019-04-03T20:01:49.836Z,12.10
2019-04-03T20:04:16.381Z,12.10
2019-04-03T20:06:42.771Z,12.00
2019-04-03T20:09:09.238Z,12.00
2019-04-03T20:11:36.465Z,11.90
2019-04-03T20:14:04.216Z,11.90
2019-04-03T20:16:30.643Z,11.80
2019-04-03T20:18:57.085Z,11.80
2019-04-03T20:21:23.559Z,11.80
2019-04-03T20:23:50.154Z,11.70
2019-04-03T20:26:16.960Z,11.80
2019-04-03T20:28:43.501Z,11.70
2019-04-03T20:31:09.922Z,11.70
2019-04-03T20:33:36.309Z,11.70
2019-04-03T20:36:02.682Z,11.60
2019-04-03T20:38:29.151Z,11.50
2019-04-03T20:40:55.550Z,11.50
2019-04-03T20:43:22.011Z,11.50
2019-04-03T20:45:49.786Z,11.50
2019-04-03T20:48:16.566Z,11.50
2019-04-03T20:50:43.340Z,11.40
2019-04-03T20:53:09.846Z,11.40
2019-04-03T20:55:36.347Z,11.40
2019-04-03T20:58:05.856Z,11.40
2019-04-03T21:00:31.065Z,11.30
2019-04-03T21:02:57.584Z,11.30
2019-04-03T21:05:24.021Z,11.30
2019-04-03T21:07:50.992Z,11.30
2019-04-03T21:10:17.542Z,11.30
2019-04-03T21:12:43.895Z,11.30
2019-04-03T21:15:13.445Z,11.30
2019-04-03T21:17:38.456Z,11.30
2019-04-03T21:20:05.282Z,11.30
2019-04-03T21:22:31.737Z,11.30
2019-04-03T21:24:58.238Z,11.20
2019-04-03T21:27:24.665Z,11.30
2019-04-03T21:29:51.129Z,11.20
2019-04-03T21:32:17.490Z,11.20
2019-04-03T21:34:43.912Z,11.10
2019-04-03T21:37:10.294Z,11.20
2019-04-03T21:39:37.835Z,11.10
2019-04-03T21:42:04.208Z,11.00
2019-04-03T21:44:32.438Z,11.00
2019-04-03T21:46:59.028Z,11.00
2019-04-03T21:49:25.421Z,10.90
2019-04-03T21:51:52.406Z,10.90
2019-04-03T21:54:18.961Z,10.80
2019-04-03T21:56:45.435Z,10.70
2019-04-03T21:59:11.851Z,10.70
2019-04-03T22:01:38.364Z,10.60
2019-04-03T22:04:04.756Z,10.70
2019-04-03T22:06:31.182Z,10.60
2019-04-03T22:08:59.663Z,10.60
2019-04-03T22:11:25.841Z,10.60
2019-04-03T22:13:52.431Z,10.50
2019-04-03T22:16:20.392Z,10.50
2019-04-03T22:18:47.373Z,10.40
2019-04-03T22:21:15.223Z,10.40
2019-04-03T22:23:41.620Z,10.40
2019-04-03T22:26:09.792Z,10.40
2019-04-03T22:28:36.427Z,10.40
2019-04-03T22:31:04.232Z,10.30
2019-04-03T22:33:30.958Z,10.20
2019-04-03T22:35:57.682Z,10.20
2019-04-03T22:38:24.140Z,10.20
2019-04-03T22:40:50.599Z,10.10
2019-04-03T22:43:17.021Z,10.10
2019-04-03T22:45:43.602Z,10.10
2019-04-03T22:48:10.018Z,10.00
2019-04-03T22:50:36.522Z,10.00
2019-04-03T22:53:03.031Z,10.10
2019-04-03T22:55:29.510Z,10.10
2019-04-03T22:57:55.933Z,10.00
2019-04-03T23:00:23.927Z,10.00
2019-04-03T23:02:50.676Z,9.90
2019-04-03T23:05:17.761Z,9.90
2019-04-03T23:07:44.259Z,9.90
2019-04-03T23:10:10.712Z,9.90
2019-04-03T23:12:37.128Z,9.80
2019-04-03T23:15:05.123Z,9.80
2019-04-03T23:17:31.950Z,9.80
2019-04-03T23:19:58.425Z,9.80
2019-04-03T23:22:25.897Z,9.80
2019-04-03T23:24:53.005Z,9.70
2019-04-03T23:27:19.488Z,9.80
2019-04-03T23:29:46.126Z,9.80
2019-04-03T23:32:15.289Z,9.80
2019-04-03T23:34:40.931Z,9.80
2019-04-03T23:37:07.397Z,9.80
2019-04-03T23:39:33.792Z,9.80
2019-04-03T23:42:00.244Z,9.80
2019-04-03T23:44:26.669Z,9.80
2019-04-03T23:46:53.318Z,9.80
2019-04-03T23:49:20.800Z,9.80
2019-04-03T23:51:47.307Z,9.80
2019-04-03T23:54:13.759Z,9.80
2019-04-03T23:56:40.234Z,9.80
2019-04-03T23:59:06.737Z,9.80
